createdAt,value
2022-09-26T00:04:46.741Z,4.00
2022-09-26T00:07:18.562Z,4.50
2022-09-26T00:12:20.360Z,4.30
2022-09-26T00:14:51.764Z,4.80
2022-09-26T00:17:23.111Z,4.90
2022-09-26T00:19:54.517Z,4.70
2022-09-26T00:22:26.074Z,4.60
2022-09-26T00:24:57.465Z,4.70
2022-09-26T00:27:28.926Z,5.00
2022-09-26T00:30:00.234Z,4.70
2022-09-26T00:32:32.003Z,5.10
2022-09-26T00:37:33.044Z,5.10
2022-09-26T00:40:05.204Z,4.80
2022-09-26T00:42:36.718Z,5.30
2022-09-26T00:45:09.977Z,5.60
2022-09-26T00:47:43.381Z,5.50
2022-09-26T00:50:17.983Z,5.60
2022-09-26T00:52:51.587Z,4.60
2022-09-26T00:55:24.738Z,5.00
2022-09-26T00:57:58.059Z,4.90
2022-09-26T01:00:29.996Z,4.60
2022-09-26T01:03:01.546Z,4.40
2022-09-26T01:05:33.128Z,4.70
2022-09-26T01:08:05.518Z,6.20
2022-09-26T01:10:37.824Z,5.30
2022-09-26T01:13:09.927Z,5.60
2022-09-26T01:15:41.415Z,4.50
2022-09-26T01:18:13.118Z,5.10
2022-09-26T01:20:51.109Z,5.00
2022-09-26T01:23:50.673Z,4.50
2022-09-26T01:26:32.429Z,5.10
2022-09-26T01:29:19.677Z,5.60
2022-09-26T01:32:08.714Z,5.30
2022-09-26T01:34:42.311Z,4.60
2022-09-26T01:37:16.467Z,5.50
2022-09-26T01:39:52.943Z,5.70
2022-09-26T01:42:27.754Z,4.80
2022-09-26T01:45:02.042Z,5.90
2022-09-26T01:47:36.431Z,5.30
2022-09-26T01:50:12.060Z,4.90
2022-09-26T01:52:47.211Z,5.20
2022-09-26T01:55:20.651Z,4.60
2022-09-26T01:57:56.921Z,5.10
2022-09-26T02:00:28.316Z,5.10
2022-09-26T02:03:01.185Z,4.70
2022-09-26T02:05:34.364Z,6.30
2022-09-26T02:08:08.348Z,4.90
2022-09-26T02:10:41.836Z,4.80
2022-09-26T02:13:15.841Z,5.20
2022-09-26T02:15:48.832Z,4.90
2022-09-26T02:18:21.838Z,5.50
2022-09-26T02:20:56.095Z,4.30
2022-09-26T02:23:27.475Z,5.20
2022-09-26T02:26:00.300Z,4.80
2022-09-26T02:28:31.652Z,4.60
2022-09-26T02:31:03.201Z,5.00
2022-09-26T02:33:34.724Z,5.00
2022-09-26T02:36:08.703Z,5.30
2022-09-26T02:38:40.136Z,4.30
2022-09-26T02:41:47.927Z,4.50
2022-09-26T02:44:30.315Z,4.30
2022-09-26T02:47:10.468Z,4.40
2022-09-26T02:50:03.317Z,10.10
2022-09-26T02:52:40.754Z,5.80
2022-09-26T02:55:17.003Z,5.00
2022-09-26T02:57:53.212Z,4.50
2022-09-26T03:00:25.495Z,5.40
2022-09-26T03:03:00.868Z,4.70
2022-09-26T03:05:32.626Z,5.30
2022-09-26T03:08:06.456Z,5.40
2022-09-26T03:10:37.951Z,4.60
2022-09-26T03:13:10.437Z,5.40
2022-09-26T03:15:42.708Z,5.30
2022-09-26T03:18:15.543Z,5.70
2022-09-26T03:20:46.956Z,5.20
2022-09-26T03:23:19.021Z,5.30
2022-09-26T03:25:52.037Z,4.10
2022-09-26T03:28:23.842Z,4.60
2022-09-26T03:30:55.732Z,5.00
2022-09-26T03:33:30.859Z,5.60
2022-09-26T03:36:04.534Z,5.20
2022-09-26T03:38:36.333Z,6.20
2022-09-26T03:41:21.007Z,6.10
2022-09-26T03:44:18.558Z,5.80
2022-09-26T03:47:21.993Z,5.30
2022-09-26T03:49:54.850Z,5.90
2022-09-26T03:52:26.803Z,6.30
2022-09-26T03:54:58.897Z,5.90
2022-09-26T03:57:30.368Z,6.10
2022-09-26T04:00:08.456Z,6.00
2022-09-26T04:02:49.779Z,5.30
2022-09-26T04:05:28.777Z,5.80
2022-09-26T04:08:04.642Z,5.30
2022-09-26T04:10:36.694Z,5.70
2022-09-26T04:13:09.982Z,5.80
2022-09-26T04:15:42.057Z,5.80
2022-09-26T04:18:16.870Z,5.00
2022-09-26T04:20:48.472Z,5.90
2022-09-26T04:25:50.069Z,5.40
2022-09-26T04:28:21.833Z,6.10
2022-09-26T04:33:25.045Z,5.50
2022-09-26T04:36:13.919Z,5.80
2022-09-26T04:38:46.081Z,6.20
2022-09-26T04:41:19.994Z,6.00
2022-09-26T04:43:52.424Z,6.60
2022-09-26T04:46:30.236Z,6.00
2022-09-26T04:49:03.884Z,5.70
2022-09-26T04:51:36.335Z,6.40
2022-09-26T04:54:08.869Z,5.80
2022-09-26T04:56:43.428Z,6.20
2022-09-26T05:02:16.228Z,7.00
2022-09-26T05:04:48.615Z,6.80
2022-09-26T05:07:21.737Z,6.30
2022-09-26T05:09:53.863Z,6.50
2022-09-26T05:12:27.755Z,6.60
2022-09-26T05:15:00.386Z,7.90
2022-09-26T05:17:34.545Z,6.90
2022-09-26T05:20:09.027Z,6.30
2022-09-26T05:23:03.673Z,6.90
2022-09-26T05:25:57.381Z,6.40
2022-09-26T05:28:29.004Z,7.20
2022-09-26T05:31:04.014Z,7.10
2022-09-26T05:33:38.756Z,5.80
2022-09-26T05:36:11.315Z,5.70
2022-09-26T05:38:44.251Z,6.70
2022-09-26T05:43:45.858Z,5.30
2022-09-26T05:46:17.630Z,5.70
2022-09-26T05:48:52.530Z,5.80
2022-09-26T05:51:26.346Z,5.50
2022-09-26T05:53:58.942Z,6.30
2022-09-26T05:56:31.073Z,5.50
2022-09-26T05:59:22.783Z,5.00
2022-09-26T06:02:16.158Z,5.60
2022-09-26T06:05:04.434Z,6.10
2022-09-26T06:08:00.108Z,6.30
2022-09-26T06:10:41.612Z,5.70
2022-09-26T06:13:15.650Z,5.40
2022-09-26T06:15:54.950Z,6.60
2022-09-26T06:18:26.463Z,5.70
2022-09-26T06:20:58.034Z,5.20
2022-09-26T06:23:29.629Z,4.80
2022-09-26T06:26:01.536Z,5.60
2022-09-26T06:28:33.833Z,5.50
2022-09-26T06:31:11.502Z,5.80
2022-09-26T06:34:19.159Z,5.90
2022-09-26T06:37:13.413Z,6.00
2022-09-26T06:39:45.245Z,5.40
2022-09-26T06:45:15.119Z,5.60
2022-09-26T06:48:13.256Z,5.60
2022-09-26T06:51:04.882Z,5.80
2022-09-26T06:53:36.621Z,6.40
2022-09-26T06:56:08.856Z,4.80
2022-09-26T06:58:40.656Z,5.60
2022-09-26T07:01:13.207Z,5.40
2022-09-26T07:03:47.801Z,4.60
2022-09-26T07:06:38.477Z,3.90
2022-09-26T07:09:12.681Z,4.10
2022-09-26T07:12:15.598Z,4.10
2022-09-26T07:14:52.832Z,4.10
2022-09-26T07:17:33.766Z,4.40
2022-09-26T07:20:37.162Z,4.30
2022-09-26T07:23:11.532Z,4.10
2022-09-26T07:25:47.578Z,3.30
2022-09-26T07:28:19.338Z,4.20
2022-09-26T07:30:53.219Z,5.30
2022-09-26T07:33:50.714Z,4.60
2022-09-26T07:36:22.697Z,4.30
2022-09-26T07:38:54.266Z,3.70
2022-09-26T07:41:26.233Z,3.20
2022-09-26T07:47:09.402Z,3.10
2022-09-26T07:49:58.686Z,3.00
2022-09-26T07:52:40.674Z,3.40
2022-09-26T07:55:32.304Z,3.50
2022-09-26T07:58:26.266Z,3.50
2022-09-26T08:01:14.538Z,3.70
2022-09-26T08:04:13.728Z,3.30
2022-09-26T08:06:45.449Z,3.80
2022-09-26T08:12:06.837Z,3.40
2022-09-26T08:14:59.131Z,3.80
2022-09-26T08:17:43.603Z,3.60
2022-09-26T08:20:15.681Z,3.90
2022-09-26T08:22:47.381Z,3.90
2022-09-26T08:25:20.264Z,3.50
2022-09-26T08:28:00.468Z,4.60
2022-09-26T08:30:32.644Z,3.80
2022-09-26T08:33:06.967Z,5.30
2022-09-26T08:35:42.311Z,5.60
2022-09-26T08:38:43.632Z,4.90
2022-09-26T08:41:46.371Z,5.20
2022-09-26T08:44:46.404Z,5.20
2022-09-26T08:47:58.146Z,5.10
2022-09-26T08:50:34.011Z,5.00
2022-09-26T08:53:06.927Z,4.60
2022-09-26T08:55:46.233Z,4.80
2022-09-26T08:58:21.680Z,4.70
2022-09-26T09:00:57.664Z,4.50
2022-09-26T09:03:31.261Z,4.60
2022-09-26T09:06:05.376Z,4.20
2022-09-26T09:08:39.428Z,4.00
2022-09-26T09:11:39.776Z,4.40
2022-09-26T09:14:17.640Z,3.70
2022-09-26T09:17:10.698Z,4.30
2022-09-26T09:20:07.503Z,4.50
2022-09-26T09:23:12.361Z,4.30
2022-09-26T09:25:51.476Z,4.00
2022-09-26T09:28:29.819Z,4.20
2022-09-26T09:31:03.094Z,4.00
2022-09-26T09:33:42.947Z,4.10
2022-09-26T09:36:27.118Z,3.60
2022-09-26T09:39:29.305Z,3.90
2022-09-26T09:42:07.846Z,4.00
2022-09-26T09:44:46.889Z,3.80
2022-09-26T09:47:19.851Z,3.30
2022-09-26T09:49:51.863Z,3.10
2022-09-26T09:52:32.674Z,2.70
2022-09-26T09:55:11.373Z,2.50
2022-09-26T09:57:50.574Z,2.60
2022-09-26T10:00:24.315Z,3.10
2022-09-26T10:03:24.415Z,3.40
2022-09-26T10:05:58.530Z,2.70
2022-09-26T10:08:34.731Z,3.10
2022-09-26T10:11:14.364Z,2.40
2022-09-26T10:14:03.581Z,2.40
2022-09-26T10:17:20.837Z,2.70
2022-09-26T10:20:36.614Z,2.90
2022-09-26T10:23:21.234Z,3.10
2022-09-26T10:25:53.680Z,3.00
2022-09-26T10:28:30.755Z,2.40
2022-09-26T10:31:08.709Z,2.50
2022-09-26T10:33:59.818Z,2.90
2022-09-26T10:36:34.420Z,2.10
2022-09-26T10:39:37.783Z,2.50
2022-09-26T10:42:19.266Z,2.30
2022-09-26T10:44:52.304Z,2.70
2022-09-26T10:47:27.848Z,2.40
2022-09-26T10:50:28.113Z,2.20
2022-09-26T10:53:20.074Z,3.10
2022-09-26T10:55:58.039Z,2.10
2022-09-26T10:58:30.443Z,1.90
2022-09-26T11:01:07.727Z,1.90
2022-09-26T11:03:45.602Z,2.00
2022-09-26T11:06:29.685Z,1.80
2022-09-26T11:09:11.516Z,2.40
2022-09-26T11:12:28.536Z,1.70
2022-09-26T11:15:03.230Z,2.10
2022-09-26T11:17:47.842Z,1.90
2022-09-26T11:20:29.049Z,2.00
2022-09-26T11:23:07.271Z,2.00
2022-09-26T11:25:52.268Z,1.80
2022-09-26T11:28:28.581Z,1.90
2022-09-26T11:31:24.205Z,2.10
2022-09-26T11:34:07.577Z,2.40
2022-09-26T11:37:03.926Z,1.90
2022-09-26T11:39:51.004Z,2.00
2022-09-26T11:42:30.324Z,1.70
2022-09-26T11:45:04.361Z,1.80
2022-09-26T11:48:13.795Z,2.20
2022-09-26T11:51:07.577Z,1.70
2022-09-26T11:54:01.260Z,2.20
2022-09-26T11:56:52.022Z,2.10
2022-09-26T11:59:36.516Z,1.80
2022-09-26T12:02:21.165Z,2.00
2022-09-26T12:05:16.581Z,1.60
2022-09-26T12:07:50.117Z,1.80
2022-09-26T12:10:27.230Z,1.80
2022-09-26T12:13:11.512Z,2.10
2022-09-26T12:15:44.948Z,1.90
2022-09-26T12:18:22.262Z,1.70
2022-09-26T12:21:02.810Z,2.00
2022-09-26T12:23:36.344Z,2.00
2022-09-26T12:26:15.159Z,2.10
2022-09-26T12:28:59.296Z,2.20
2022-09-26T12:31:37.616Z,2.30
2022-09-26T12:34:39.030Z,2.00
2022-09-26T12:37:17.980Z,1.80
2022-09-26T12:39:57.468Z,2.00
2022-09-26T12:42:39.798Z,2.10
2022-09-26T12:45:22.298Z,2.10
2022-09-26T12:48:03.869Z,2.10
2022-09-26T12:50:40.452Z,2.20
2022-09-26T12:53:27.566Z,2.30
2022-09-26T12:56:07.460Z,2.20
2022-09-26T12:58:49.021Z,2.40
2022-09-26T13:01:32.904Z,2.00
2022-09-26T13:04:53.783Z,1.90
2022-09-26T13:10:16.927Z,2.10
2022-09-26T13:13:13.066Z,1.80
2022-09-26T13:16:02.508Z,1.90
2022-09-26T13:18:40.203Z,1.90
2022-09-26T13:21:14.390Z,2.30
2022-09-26T13:23:54.329Z,2.70
2022-09-26T13:26:29.204Z,1.70
2022-09-26T13:29:17.157Z,1.60
2022-09-26T13:32:00.619Z,3.00
2022-09-26T13:34:35.900Z,2.00
2022-09-26T13:37:10.683Z,1.90
2022-09-26T13:39:46.676Z,2.10
2022-09-26T13:42:20.967Z,2.30
2022-09-26T13:45:00.555Z,1.90
2022-09-26T13:47:47.701Z,1.90
2022-09-26T13:50:24.127Z,2.00
2022-09-26T13:53:04.875Z,1.90
2022-09-26T13:55:37.476Z,2.40
2022-09-26T13:58:22.510Z,2.50
2022-09-26T14:00:58.054Z,2.00
2022-09-26T14:03:42.926Z,1.80
2022-09-26T14:06:34.888Z,1.90
2022-09-26T14:09:28.005Z,1.70
2022-09-26T14:12:22.014Z,2.00
2022-09-26T14:15:17.159Z,1.80
2022-09-26T14:18:18.344Z,2.00
2022-09-26T14:21:06.287Z,2.10
2022-09-26T14:23:42.252Z,1.90
2022-09-26T14:26:21.406Z,2.20
2022-09-26T14:28:57.116Z,2.00
2022-09-26T14:31:44.920Z,2.30
2022-09-26T14:34:26.146Z,2.30
2022-09-26T14:36:57.806Z,2.90
2022-09-26T14:39:33.683Z,2.30
2022-09-26T14:42:19.610Z,3.00
2022-09-26T14:44:58.565Z,2.80
2022-09-26T14:47:30.833Z,2.00
2022-09-26T14:50:05.739Z,2.50
2022-09-26T14:52:38.174Z,3.50
2022-09-26T14:55:10.422Z,2.80
2022-09-26T14:57:42.147Z,3.40
2022-09-26T15:03:01.153Z,3.10
2022-09-26T15:05:33.191Z,3.20
2022-09-26T15:08:05.083Z,3.40
2022-09-26T15:10:42.676Z,3.20
2022-09-26T15:13:27.087Z,3.70
2022-09-26T15:16:10.079Z,3.70
2022-09-26T15:18:42.749Z,4.10
2022-09-26T15:21:19.985Z,3.00
2022-09-26T15:23:53.121Z,3.10
2022-09-26T15:26:26.148Z,3.20
2022-09-26T15:28:57.950Z,3.60
2022-09-26T15:31:31.153Z,3.20
2022-09-26T15:34:11.783Z,3.50
2022-09-26T15:36:44.239Z,3.10
2022-09-26T15:39:42.063Z,3.00
2022-09-26T15:42:45.567Z,3.30
2022-09-26T15:45:27.765Z,3.50
2022-09-26T15:48:00.308Z,3.30
2022-09-26T15:50:35.465Z,3.70
2022-09-26T15:53:09.624Z,3.70
2022-09-26T15:55:50.624Z,3.90
2022-09-26T15:58:25.086Z,4.00
2022-09-26T16:00:57.022Z,3.80
2022-09-26T16:06:10.186Z,3.70
2022-09-26T16:08:43.799Z,3.70
2022-09-26T16:11:16.015Z,4.30
2022-09-26T16:13:49.455Z,4.20
2022-09-26T16:16:22.525Z,3.80
2022-09-26T16:18:58.113Z,3.40
2022-09-26T16:21:32.232Z,3.50
2022-09-26T16:24:22.537Z,3.50
2022-09-26T16:26:55.051Z,3.10
2022-09-26T16:29:34.956Z,3.00
2022-09-26T16:32:07.009Z,3.30
2022-09-26T16:37:19.953Z,3.20
2022-09-26T16:39:59.776Z,3.10
2022-09-26T16:42:33.131Z,2.50
2022-09-26T16:45:06.616Z,3.40
2022-09-26T16:47:44.073Z,3.20
2022-09-26T16:50:29.103Z,2.60
2022-09-26T16:53:02.681Z,2.90
2022-09-26T16:55:35.239Z,3.50
2022-09-26T16:58:07.897Z,2.90
2022-09-26T17:00:57.442Z,3.10
2022-09-26T17:03:31.045Z,2.90
2022-09-26T17:06:03.093Z,2.70
2022-09-26T17:08:35.427Z,3.00
2022-09-26T17:11:08.405Z,3.50
2022-09-26T17:13:41.016Z,3.00
2022-09-26T17:16:13.453Z,2.80
2022-09-26T17:18:45.520Z,3.10
2022-09-26T17:21:17.691Z,3.00
2022-09-26T17:23:49.462Z,2.90
2022-09-26T17:26:22.031Z,3.00
2022-09-26T17:28:54.869Z,2.90
2022-09-26T17:31:27.345Z,2.50
2022-09-26T17:33:59.219Z,3.10
2022-09-26T17:36:32.046Z,2.80
2022-09-26T17:39:03.761Z,3.50
2022-09-26T17:41:38.116Z,3.40
2022-09-26T17:44:09.804Z,3.00
2022-09-26T17:46:43.319Z,3.50
2022-09-26T17:49:16.943Z,2.80
2022-09-26T17:51:49.925Z,3.20
2022-09-26T17:54:22.164Z,2.60
2022-09-26T17:56:53.985Z,2.90
2022-09-26T17:59:26.953Z,3.40
2022-09-26T18:02:01.638Z,3.40
2022-09-26T18:04:35.817Z,3.30
2022-09-26T18:07:07.505Z,3.50
2022-09-26T18:12:10.409Z,3.10
2022-09-26T18:14:43.953Z,3.10
2022-09-26T18:17:18.078Z,3.10
2022-09-26T18:19:51.298Z,3.60
2022-09-26T18:22:24.457Z,3.50
2022-09-26T18:24:57.274Z,3.50
2022-09-26T18:27:28.873Z,3.10
2022-09-26T18:30:01.277Z,3.10
2022-09-26T18:32:33.806Z,3.30
2022-09-26T18:35:05.839Z,2.60
2022-09-26T18:37:37.770Z,2.80
2022-09-26T18:40:11.722Z,2.80
2022-09-26T18:42:44.701Z,2.40
2022-09-26T18:45:16.830Z,3.20
2022-09-26T18:47:49.531Z,2.80
2022-09-26T18:50:33.544Z,2.90
2022-09-26T18:53:05.729Z,2.70
2022-09-26T18:55:55.116Z,2.80
2022-09-26T18:58:28.168Z,2.60
2022-09-26T19:01:00.845Z,2.60
2022-09-26T19:03:35.081Z,2.90
2022-09-26T19:06:11.482Z,2.30
2022-09-26T19:08:44.336Z,3.10
2022-09-26T19:11:17.365Z,2.70
2022-09-26T19:13:50.422Z,2.70
2022-09-26T19:16:22.676Z,3.30
2022-09-26T19:18:54.826Z,2.40
2022-09-26T19:21:32.296Z,2.20
2022-09-26T19:24:07.057Z,2.90
2022-09-26T19:26:40.807Z,2.70
2022-09-26T19:29:14.373Z,2.20
2022-09-26T19:31:46.643Z,2.70
2022-09-26T19:34:19.261Z,2.60
2022-09-26T19:36:51.270Z,2.40
2022-09-26T19:39:23.446Z,2.60
2022-09-26T19:41:55.784Z,3.00
2022-09-26T19:44:28.046Z,2.60
2022-09-26T19:47:00.396Z,2.70
2022-09-26T19:49:33.084Z,2.70
2022-09-26T19:52:05.688Z,2.60
2022-09-26T19:54:37.934Z,2.80
2022-09-26T19:57:14.006Z,2.50
2022-09-26T19:59:46.257Z,2.90
2022-09-26T20:02:19.512Z,3.30
2022-09-26T20:04:52.431Z,3.10
2022-09-26T20:07:23.933Z,2.50
2022-09-26T20:09:55.544Z,3.00
2022-09-26T20:12:27.286Z,2.50
2022-09-26T20:14:58.850Z,2.70
2022-09-26T20:17:31.127Z,2.90
2022-09-26T20:20:03.093Z,2.60
2022-09-26T20:22:35.070Z,2.80
2022-09-26T20:25:07.478Z,3.60
2022-09-26T20:27:39.195Z,2.90
2022-09-26T20:33:01.327Z,2.70
2022-09-26T20:35:35.597Z,3.00
2022-09-26T20:38:09.518Z,2.90
2022-09-26T20:40:41.113Z,2.80
2022-09-26T20:45:44.319Z,3.00
2022-09-26T20:48:19.813Z,2.90
2022-09-26T20:50:52.266Z,2.50
2022-09-26T20:53:24.875Z,3.20
2022-09-26T20:55:56.763Z,2.90
2022-09-26T21:00:59.585Z,3.10
2022-09-26T21:03:31.926Z,2.80
2022-09-26T21:06:03.580Z,2.80
2022-09-26T21:08:35.498Z,3.10
2022-09-26T21:13:37.367Z,3.60
2022-09-26T21:16:10.544Z,2.80
2022-09-26T21:18:42.301Z,3.20
2022-09-26T21:21:17.912Z,3.10
2022-09-26T21:24:00.626Z,2.60
2022-09-26T21:29:06.105Z,3.20
2022-09-26T21:31:38.396Z,3.00
2022-09-26T21:34:12.326Z,3.20
2022-09-26T21:36:45.718Z,2.60
2022-09-26T21:39:18.137Z,3.10
2022-09-26T21:41:52.021Z,2.80
2022-09-26T21:44:25.710Z,2.80
2022-09-26T21:46:57.597Z,3.10
2022-09-26T21:49:29.291Z,2.70
2022-09-26T21:52:04.768Z,2.30
2022-09-26T21:54:38.539Z,2.90
2022-09-26T21:57:11.406Z,3.10
2022-09-26T21:59:43.126Z,2.80
2022-09-26T22:04:45.334Z,3.00
2022-09-26T22:07:17.059Z,3.10
2022-09-26T22:12:20.425Z,2.40
2022-09-26T22:14:52.488Z,2.90
2022-09-26T22:17:24.048Z,2.30
2022-09-26T22:19:55.625Z,3.10
2022-09-26T22:22:27.404Z,3.00
2022-09-26T22:25:03.682Z,2.80
2022-09-26T22:27:35.466Z,2.70
2022-09-26T22:30:08.529Z,3.10
2022-09-26T22:32:40.277Z,2.80
2022-09-26T22:37:42.610Z,3.10
2022-09-26T22:40:14.662Z,3.00
2022-09-26T22:42:46.463Z,3.30
2022-09-26T22:45:18.359Z,3.50
2022-09-26T22:47:50.159Z,3.00
2022-09-26T22:50:22.015Z,3.00
2022-09-26T22:55:23.596Z,3.00
2022-09-26T22:57:55.251Z,3.50
2022-09-26T23:02:57.242Z,3.30
2022-09-26T23:05:29.294Z,3.10
2022-09-26T23:08:01.701Z,2.70
2022-09-26T23:10:33.302Z,3.00
2022-09-26T23:15:35.547Z,2.80
2022-09-26T23:18:07.247Z,3.30
2022-09-26T23:23:09.611Z,3.30
2022-09-26T23:25:47.605Z,3.10
2022-09-26T23:28:19.638Z,3.10
2022-09-26T23:30:51.411Z,3.50
2022-09-26T23:33:22.973Z,3.70
2022-09-26T23:36:01.361Z,3.60
2022-09-26T23:38:32.908Z,3.90
2022-09-26T23:41:04.996Z,3.80
2022-09-26T23:43:36.549Z,3.50
2022-09-26T23:46:08.355Z,3.70
2022-09-26T23:48:39.904Z,4.20
2022-09-26T23:51:11.667Z,3.20
2022-09-26T23:56:14.368Z,3.50
2022-09-26T23:58:45.961Z,3.70
